createdAt,value
2022-10-02T00:01:35.453Z,2.63
2022-10-02T00:04:04.052Z,6.10
2022-10-02T00:06:39.185Z,3.87
2022-10-02T00:09:08.992Z,15.90
2022-10-02T00:11:40.932Z,7.47
2022-10-02T00:14:12.624Z,3.43
2022-10-02T00:16:43.060Z,10.43
2022-10-02T00:19:11.621Z,6.40
2022-10-02T00:21:51.643Z,12.20
2022-10-02T00:24:24.020Z,5.00
2022-10-02T00:26:55.713Z,1.63
2022-10-02T00:29:30.708Z,5.87
2022-10-02T00:32:10.518Z,3.47
2022-10-02T00:34:43.623Z,6.80
2022-10-02T00:37:20.770Z,5.83
2022-10-02T00:39:55.113Z,7.77
2022-10-02T00:42:49.249Z,4.77
2022-10-02T00:45:52.707Z,6.33
2022-10-02T00:48:40.645Z,3.60
2022-10-02T00:51:16.095Z,3.80
2022-10-02T00:53:52.569Z,1.70
2022-10-02T00:56:27.629Z,1.60
2022-10-02T00:59:17.831Z,2.60
2022-10-02T01:01:49.468Z,5.17
2022-10-02T01:04:22.394Z,1.33
2022-10-02T01:06:50.533Z,1.33
2022-10-02T01:09:19.932Z,3.80
2022-10-02T01:11:48.923Z,1.37
2022-10-02T01:14:16.982Z,1.97
2022-10-02T01:16:45.342Z,6.07
2022-10-02T01:19:19.890Z,3.00
2022-10-02T01:21:54.924Z,5.27
2022-10-02T01:24:28.796Z,4.50
2022-10-02T01:26:58.443Z,4.20
2022-10-02T01:29:26.489Z,2.87
2022-10-02T01:31:54.640Z,3.80
2022-10-02T01:34:23.378Z,5.43
2022-10-02T01:36:51.426Z,4.10
2022-10-02T01:39:19.480Z,5.77
2022-10-02T01:41:47.547Z,3.10
2022-10-02T01:44:17.412Z,9.10
2022-10-02T01:46:52.011Z,4.33
2022-10-02T01:49:35.376Z,4.53
2022-10-02T01:52:14.434Z,2.13
2022-10-02T01:54:53.063Z,1.93
2022-10-02T01:57:30.910Z,2.00
2022-10-02T02:00:08.666Z,4.10
2022-10-02T02:02:45.299Z,6.10
2022-10-02T02:05:19.203Z,2.73
2022-10-02T02:07:50.004Z,6.90
2022-10-02T02:10:24.713Z,4.50
2022-10-02T02:12:57.738Z,8.50
2022-10-02T02:15:30.225Z,2.93
2022-10-02T02:17:59.719Z,1.93
2022-10-02T02:20:31.057Z,2.47
2022-10-02T02:23:04.670Z,4.43
2022-10-02T02:25:35.310Z,12.50
2022-10-02T02:28:06.445Z,3.10
2022-10-02T02:30:37.267Z,5.23
2022-10-02T02:33:09.807Z,3.03
2022-10-02T02:35:42.294Z,3.50
2022-10-02T02:38:17.635Z,4.90
2022-10-02T02:40:47.157Z,6.23
2022-10-02T02:43:18.166Z,3.30
2022-10-02T02:45:50.346Z,2.50
2022-10-02T02:48:23.241Z,3.67
2022-10-02T02:50:53.114Z,1.90
2022-10-02T02:53:24.162Z,3.70
2022-10-02T02:55:54.383Z,5.57
2022-10-02T02:58:25.699Z,3.73
2022-10-02T03:00:55.280Z,4.37
2022-10-02T03:03:23.570Z,2.40
2022-10-02T03:05:54.297Z,5.03
2022-10-02T03:08:25.833Z,5.23
2022-10-02T03:11:06.406Z,4.97
2022-10-02T03:13:45.768Z,5.40
2022-10-02T03:16:24.921Z,3.70
2022-10-02T03:19:06.158Z,6.13
2022-10-02T03:21:41.313Z,4.13
2022-10-02T03:24:14.545Z,5.90
2022-10-02T03:26:45.834Z,5.83
2022-10-02T03:29:17.323Z,5.10
2022-10-02T03:31:47.666Z,5.80
2022-10-02T03:34:16.065Z,6.30
2022-10-02T03:36:44.824Z,3.97
2022-10-02T03:39:24.623Z,6.40
2022-10-02T03:41:53.591Z,12.53
2022-10-02T03:44:21.718Z,4.93
2022-10-02T03:46:51.170Z,5.80
2022-10-02T03:49:19.295Z,2.93
2022-10-02T03:51:47.372Z,5.80
2022-10-02T03:54:18.577Z,6.90
2022-10-02T03:56:54.821Z,3.03
2022-10-02T03:59:34.171Z,3.93
2022-10-02T04:02:06.165Z,9.80
2022-10-02T04:04:42.319Z,7.60
2022-10-02T04:07:15.979Z,2.83
2022-10-02T04:09:47.980Z,10.87
2022-10-02T04:12:18.409Z,16.87
2022-10-02T04:14:51.522Z,3.00
2022-10-02T04:17:24.077Z,4.20
2022-10-02T04:19:54.389Z,3.63
2022-10-02T04:22:29.003Z,4.73
2022-10-02T04:25:01.656Z,8.07
2022-10-02T04:27:34.842Z,2.73
2022-10-02T04:30:07.134Z,8.30
2022-10-02T04:32:37.948Z,4.97
2022-10-02T04:35:14.446Z,5.13
2022-10-02T04:38:08.844Z,4.03
2022-10-02T04:40:50.544Z,5.33
2022-10-02T04:43:31.787Z,3.00
2022-10-02T04:46:08.716Z,4.40
2022-10-02T04:49:03.632Z,5.00
2022-10-02T04:51:44.182Z,4.53
2022-10-02T04:54:44.240Z,3.80
2022-10-02T04:57:22.190Z,11.87
2022-10-02T05:00:02.418Z,4.30
2022-10-02T05:02:42.140Z,2.30
2022-10-02T05:05:20.306Z,6.20
2022-10-02T05:08:03.136Z,12.83
2022-10-02T05:10:47.649Z,3.57
2022-10-02T05:13:28.703Z,3.80
2022-10-02T05:16:08.490Z,6.20
2022-10-02T05:19:06.736Z,6.07
2022-10-02T05:21:46.983Z,5.27
2022-10-02T05:24:27.940Z,4.10
2022-10-02T05:27:08.547Z,11.37
2022-10-02T05:29:47.972Z,4.67
2022-10-02T05:32:40.705Z,4.00
2022-10-02T05:35:19.945Z,4.73
2022-10-02T05:37:57.057Z,9.10
2022-10-02T05:40:28.161Z,12.50
2022-10-02T05:43:02.412Z,16.83
2022-10-02T05:45:33.827Z,8.47
2022-10-02T05:48:07.645Z,5.50
2022-10-02T05:50:37.017Z,9.90
2022-10-02T05:53:12.347Z,4.50
2022-10-02T05:55:46.209Z,4.40
2022-10-02T05:58:18.437Z,1.87
2022-10-02T06:00:50.739Z,1.97
2022-10-02T06:03:22.577Z,4.17
2022-10-02T06:05:56.395Z,2.33
2022-10-02T06:08:31.532Z,4.10
2022-10-02T06:11:03.998Z,5.73
2022-10-02T06:13:36.265Z,5.17
2022-10-02T06:16:11.750Z,6.40
2022-10-02T06:18:43.641Z,3.90
2022-10-02T06:21:15.307Z,8.03
2022-10-02T06:23:47.840Z,17.13
2022-10-02T06:26:23.557Z,12.57
2022-10-02T06:28:54.348Z,11.37
2022-10-02T06:31:27.082Z,12.10
2022-10-02T06:33:55.232Z,12.30
2022-10-02T06:36:39.801Z,5.47
2022-10-02T06:39:20.697Z,5.33
2022-10-02T06:41:56.705Z,3.23
2022-10-02T06:44:28.553Z,5.03
2022-10-02T06:47:08.889Z,3.37
2022-10-02T06:49:46.493Z,4.20
2022-10-02T06:52:25.103Z,3.00
2022-10-02T06:55:06.361Z,6.50
2022-10-02T06:57:43.539Z,2.73
2022-10-02T07:00:15.982Z,3.00
2022-10-02T07:03:06.704Z,2.93
2022-10-02T07:06:21.929Z,2.23
2022-10-02T07:09:02.059Z,2.93
2022-10-02T07:11:33.816Z,7.17
2022-10-02T07:14:12.171Z,4.37
2022-10-02T07:16:51.697Z,3.73
2022-10-02T07:19:45.534Z,5.53
2022-10-02T07:22:44.115Z,4.67
2022-10-02T07:25:28.090Z,4.70
2022-10-02T07:28:03.648Z,8.33
2022-10-02T07:30:36.301Z,14.67
2022-10-02T07:33:10.939Z,73.17
2022-10-02T07:35:46.638Z,62.93
2022-10-02T07:38:43.063Z,44.37
2022-10-02T07:41:49.117Z,12.53
2022-10-02T07:44:45.746Z,8.20
2022-10-02T07:47:22.115Z,5.90
2022-10-02T07:49:53.283Z,10.43
2022-10-02T07:52:27.483Z,7.67
2022-10-02T07:55:07.380Z,6.87
2022-10-02T07:57:39.851Z,7.90
2022-10-02T08:00:15.013Z,6.00
2022-10-02T08:02:50.191Z,5.97
2022-10-02T08:05:21.134Z,9.90
2022-10-02T08:07:50.956Z,5.80
2022-10-02T08:10:22.654Z,8.20
2022-10-02T08:12:56.349Z,6.60
2022-10-02T08:15:26.227Z,7.10
2022-10-02T08:18:10.853Z,8.60
2022-10-02T08:20:47.222Z,9.07
2022-10-02T08:23:22.142Z,6.97
2022-10-02T08:25:56.166Z,8.00
2022-10-02T08:28:28.001Z,4.80
2022-10-02T08:30:58.356Z,4.47
2022-10-02T08:33:26.467Z,5.60
2022-10-02T08:36:07.999Z,9.47
2022-10-02T08:38:40.736Z,7.63
2022-10-02T08:41:36.823Z,2.67
2022-10-02T08:44:43.013Z,3.90
2022-10-02T08:47:44.794Z,4.53
2022-10-02T08:50:43.946Z,6.93
2022-10-02T08:53:45.514Z,8.40
2022-10-02T08:56:26.422Z,8.07
2022-10-02T08:59:19.829Z,4.83
2022-10-02T09:02:32.064Z,6.73
2022-10-02T09:05:39.564Z,6.27
2022-10-02T09:08:33.454Z,10.70
2022-10-02T09:11:40.447Z,15.27
2022-10-02T09:14:40.320Z,9.30
2022-10-02T09:17:30.840Z,11.30
2022-10-02T09:20:28.352Z,26.00
2022-10-02T09:23:20.054Z,7.13
2022-10-02T09:25:55.294Z,11.93
2022-10-02T09:28:53.320Z,7.17
2022-10-02T09:31:58.676Z,4.73
2022-10-02T09:34:52.629Z,6.53
2022-10-02T09:37:45.534Z,5.57
2022-10-02T09:40:45.889Z,2.90
2022-10-02T09:44:06.475Z,10.40
2022-10-02T09:46:59.044Z,4.60
2022-10-02T09:50:06.182Z,5.50
2022-10-02T09:52:48.074Z,5.43
2022-10-02T09:55:57.955Z,4.33
2022-10-02T09:59:02.028Z,7.93
2022-10-02T10:02:06.775Z,8.93
2022-10-02T10:05:13.616Z,4.03
2022-10-02T10:08:22.928Z,4.53
2022-10-02T10:11:03.332Z,7.90
2022-10-02T10:13:51.025Z,6.50
2022-10-02T10:17:10.145Z,5.33
2022-10-02T10:20:07.483Z,8.13
2022-10-02T10:23:16.620Z,12.03
2022-10-02T10:25:52.145Z,10.70
2022-10-02T10:28:53.940Z,3.80
2022-10-02T10:31:55.205Z,4.23
2022-10-02T10:34:52.765Z,4.30
2022-10-02T10:38:10.130Z,3.87
2022-10-02T10:40:44.244Z,10.60
2022-10-02T10:43:52.027Z,2.63
2022-10-02T10:46:59.058Z,1.37
2022-10-02T10:50:03.175Z,3.40
2022-10-02T10:52:48.053Z,3.90
2022-10-02T10:55:20.428Z,4.60
2022-10-02T10:58:15.099Z,5.60
2022-10-02T11:00:56.151Z,2.63
2022-10-02T11:03:40.965Z,4.13
2022-10-02T11:06:30.489Z,4.40
2022-10-02T11:09:26.636Z,4.17
2022-10-02T11:12:22.065Z,5.63
2022-10-02T11:15:07.912Z,6.60
2022-10-02T11:18:03.254Z,3.40
2022-10-02T11:20:44.151Z,2.23
2022-10-02T11:23:34.663Z,4.00
2022-10-02T11:26:15.500Z,3.37
2022-10-02T11:29:04.669Z,2.40
2022-10-02T11:31:58.785Z,3.57
2022-10-02T11:35:03.037Z,1.47
2022-10-02T11:37:45.183Z,2.63
2022-10-02T11:40:48.050Z,2.67
2022-10-02T11:43:24.855Z,2.57
2022-10-02T11:46:14.616Z,4.10
2022-10-02T11:48:56.829Z,2.80
2022-10-02T11:51:46.472Z,1.33
2022-10-02T11:54:38.743Z,1.20
2022-10-02T11:57:35.900Z,3.33
2022-10-02T12:00:13.510Z,1.03
2022-10-02T12:02:47.813Z,2.70
2022-10-02T12:05:24.372Z,0.90
2022-10-02T12:07:58.385Z,2.03
2022-10-02T12:10:42.781Z,1.10
2022-10-02T12:13:27.939Z,1.00
2022-10-02T12:16:04.751Z,2.80
2022-10-02T12:18:47.711Z,2.70
2022-10-02T12:21:43.035Z,1.20
2022-10-02T12:24:36.055Z,1.17
2022-10-02T12:27:13.688Z,2.50
2022-10-02T12:30:08.831Z,2.10
2022-10-02T12:32:52.331Z,4.73
2022-10-02T12:35:31.998Z,1.87
2022-10-02T12:38:10.203Z,2.20
2022-10-02T12:40:43.999Z,1.00
2022-10-02T12:43:39.994Z,3.70
2022-10-02T12:46:30.715Z,4.10
2022-10-02T12:49:23.780Z,1.73
2022-10-02T12:52:15.922Z,4.00
2022-10-02T12:55:01.239Z,2.23
2022-10-02T12:57:55.073Z,1.63
2022-10-02T13:00:25.551Z,1.40
2022-10-02T13:03:43.091Z,1.73
2022-10-02T13:07:05.849Z,1.10
2022-10-02T13:09:42.751Z,1.60
2022-10-02T13:12:41.565Z,0.90
2022-10-02T13:15:39.347Z,1.40
2022-10-02T13:18:22.862Z,2.10
2022-10-02T13:21:04.279Z,1.93
2022-10-02T13:23:41.988Z,1.40
2022-10-02T13:26:16.777Z,0.80
2022-10-02T13:29:06.885Z,1.30
2022-10-02T13:31:44.077Z,2.57
2022-10-02T13:34:29.178Z,0.90
2022-10-02T13:37:08.826Z,2.10
2022-10-02T13:39:50.157Z,1.10
2022-10-02T13:42:27.309Z,1.00
2022-10-02T13:45:02.265Z,6.30
2022-10-02T13:47:51.467Z,1.43
2022-10-02T13:50:43.577Z,2.13
2022-10-02T13:53:36.240Z,3.53
2022-10-02T13:56:15.397Z,0.90
2022-10-02T13:58:57.439Z,1.30
2022-10-02T14:01:32.658Z,1.20
2022-10-02T14:04:13.503Z,2.90
2022-10-02T14:06:45.027Z,4.17
2022-10-02T14:09:19.087Z,1.73
2022-10-02T14:12:07.838Z,1.30
2022-10-02T14:14:57.325Z,5.83
2022-10-02T14:17:32.706Z,1.93
2022-10-02T14:20:10.758Z,1.73
2022-10-02T14:22:48.324Z,1.63
2022-10-02T14:25:41.373Z,1.63
2022-10-02T14:28:47.556Z,1.90
2022-10-02T14:31:31.640Z,1.37
2022-10-02T14:34:26.261Z,3.00
2022-10-02T14:37:16.738Z,1.80
2022-10-02T14:39:45.769Z,3.83
2022-10-02T14:42:27.990Z,1.03
2022-10-02T14:45:06.778Z,1.17
2022-10-02T14:47:55.258Z,3.30
2022-10-02T14:50:45.342Z,1.17
2022-10-02T14:53:35.018Z,0.90
2022-10-02T14:56:27.063Z,1.53
2022-10-02T14:59:10.198Z,2.40
2022-10-02T15:01:45.492Z,2.17
2022-10-02T15:04:32.654Z,3.17
2022-10-02T15:07:05.892Z,2.57
2022-10-02T15:09:42.392Z,3.20
2022-10-02T15:12:17.761Z,3.00
2022-10-02T15:14:57.006Z,2.10
2022-10-02T15:17:51.320Z,2.37
2022-10-02T15:20:29.210Z,3.60
2022-10-02T15:22:59.969Z,6.23
2022-10-02T15:25:48.539Z,6.30
2022-10-02T15:28:36.311Z,3.10
2022-10-02T15:31:10.460Z,5.50
2022-10-02T15:33:41.172Z,3.87
2022-10-02T15:36:44.963Z,8.53
2022-10-02T15:39:35.356Z,9.57
2022-10-02T15:42:06.136Z,3.70
2022-10-02T15:44:51.294Z,3.67
2022-10-02T15:47:35.781Z,7.43
2022-10-02T15:50:23.166Z,2.13
2022-10-02T15:52:58.845Z,2.40
2022-10-02T15:55:33.869Z,2.80
2022-10-02T15:58:12.899Z,1.97
2022-10-02T16:01:07.307Z,12.50
2022-10-02T16:03:43.142Z,1.63
2022-10-02T16:06:22.477Z,2.67
2022-10-02T16:09:13.167Z,1.47
2022-10-02T16:12:05.603Z,1.40
2022-10-02T16:14:43.798Z,1.50
2022-10-02T16:17:25.214Z,4.20
2022-10-02T16:20:12.504Z,5.30
2022-10-02T16:22:56.310Z,6.17
2022-10-02T16:25:32.555Z,2.97
2022-10-02T16:28:15.875Z,2.33
2022-10-02T16:31:07.258Z,3.20
2022-10-02T16:33:49.248Z,5.37
2022-10-02T16:36:31.936Z,1.80
2022-10-02T16:39:15.754Z,1.70
2022-10-02T16:41:58.738Z,3.50
2022-10-02T16:44:35.932Z,2.20
2022-10-02T16:47:10.329Z,2.30
2022-10-02T16:49:46.788Z,2.00
2022-10-02T16:52:19.242Z,3.73
2022-10-02T16:54:52.082Z,2.50
2022-10-02T16:57:25.016Z,2.83
2022-10-02T17:00:00.690Z,3.90
2022-10-02T17:02:34.757Z,2.43
2022-10-02T17:05:07.935Z,3.77
2022-10-02T17:07:44.887Z,2.40
2022-10-02T17:10:21.178Z,1.53
2022-10-02T17:12:53.841Z,2.27
2022-10-02T17:15:24.682Z,2.10
2022-10-02T17:18:02.669Z,1.80
2022-10-02T17:20:33.612Z,2.40
2022-10-02T17:23:06.709Z,3.53
2022-10-02T17:25:44.778Z,3.50
2022-10-02T17:28:21.081Z,4.63
2022-10-02T17:31:09.299Z,2.27
2022-10-02T17:33:46.398Z,4.63
2022-10-02T17:36:19.856Z,3.33
2022-10-02T17:38:59.052Z,8.73
2022-10-02T17:41:46.585Z,3.27
2022-10-02T17:44:24.307Z,2.50
2022-10-02T17:47:36.955Z,2.97
2022-10-02T17:50:21.603Z,2.37
2022-10-02T17:53:14.649Z,1.70
2022-10-02T17:56:24.659Z,3.07
2022-10-02T17:59:00.730Z,3.00
2022-10-02T18:01:34.974Z,3.37
2022-10-02T18:04:10.780Z,3.50
2022-10-02T18:06:42.372Z,2.73
2022-10-02T18:09:46.052Z,2.07
2022-10-02T18:12:27.510Z,8.47
2022-10-02T18:15:35.558Z,7.13
2022-10-02T18:18:19.834Z,3.20
2022-10-02T18:20:55.493Z,7.60
2022-10-02T18:23:38.310Z,3.43
2022-10-02T18:26:19.185Z,3.90
2022-10-02T18:28:58.819Z,2.80
2022-10-02T18:31:55.250Z,6.47
2022-10-02T18:34:43.936Z,4.23
2022-10-02T18:37:36.069Z,1.80
2022-10-02T18:40:17.869Z,1.20
2022-10-02T18:45:45.210Z,0.87
2022-10-02T18:48:26.663Z,1.60
2022-10-02T18:51:09.010Z,1.87
2022-10-02T18:53:50.432Z,1.37
2022-10-02T18:56:22.965Z,1.60
2022-10-02T18:58:58.722Z,2.60
2022-10-02T19:01:58.022Z,3.93
2022-10-02T19:04:46.854Z,1.83
2022-10-02T19:07:19.464Z,1.63
2022-10-02T19:09:48.173Z,2.37
2022-10-02T19:12:18.334Z,1.20
2022-10-02T19:14:49.204Z,1.87
2022-10-02T19:17:26.023Z,1.70
2022-10-02T19:19:56.313Z,2.40
2022-10-02T19:22:26.838Z,2.20
2022-10-02T19:24:56.805Z,5.13
2022-10-02T19:27:27.014Z,3.10
2022-10-02T19:29:57.849Z,2.40
2022-10-02T19:32:31.595Z,2.53
2022-10-02T19:35:04.331Z,2.67
2022-10-02T19:37:33.960Z,4.00
2022-10-02T19:40:04.390Z,2.23
2022-10-02T19:42:40.698Z,1.47
2022-10-02T19:45:10.484Z,3.63
2022-10-02T19:47:41.992Z,2.90
2022-10-02T19:50:22.848Z,1.80
2022-10-02T19:52:54.892Z,1.57
2022-10-02T19:55:25.130Z,1.63
2022-10-02T19:57:57.958Z,3.27
2022-10-02T20:00:26.902Z,1.53
2022-10-02T20:02:58.684Z,2.70
2022-10-02T20:05:27.899Z,1.10
2022-10-02T20:08:01.869Z,1.43
2022-10-02T20:10:35.240Z,2.07
2022-10-02T20:13:08.471Z,0.90
2022-10-02T20:15:59.036Z,1.27
2022-10-02T20:18:29.064Z,5.30
2022-10-02T20:21:06.757Z,9.57
2022-10-02T20:23:36.084Z,44.37
2022-10-02T20:26:08.895Z,9.97
2022-10-02T20:28:43.410Z,2.43
2022-10-02T20:31:15.802Z,5.13
2022-10-02T20:33:49.996Z,0.90
2022-10-02T20:36:21.882Z,1.40
2022-10-02T20:38:52.483Z,2.10
2022-10-02T20:41:23.599Z,1.97
2022-10-02T20:43:55.139Z,6.50
2022-10-02T20:46:47.163Z,1.83
2022-10-02T20:49:31.147Z,6.70
2022-10-02T20:52:17.755Z,1.97
2022-10-02T20:54:54.300Z,1.43
2022-10-02T20:58:06.246Z,1.40
2022-10-02T21:00:48.685Z,1.53
2022-10-02T21:03:30.902Z,0.90
2022-10-02T21:06:26.507Z,1.20
2022-10-02T21:09:26.488Z,2.80
2022-10-02T21:12:09.856Z,1.07
2022-10-02T21:14:58.662Z,5.50
2022-10-02T21:17:44.565Z,1.77
2022-10-02T21:20:57.151Z,1.20
2022-10-02T21:23:45.209Z,2.03
2022-10-02T21:26:46.192Z,1.23
2022-10-02T21:29:26.140Z,1.60
2022-10-02T21:32:21.513Z,4.07
2022-10-02T21:35:01.204Z,0.93
2022-10-02T21:37:37.872Z,1.00
2022-10-02T21:40:55.801Z,1.27
2022-10-02T21:44:04.109Z,1.40
2022-10-02T21:47:18.773Z,1.20
2022-10-02T21:50:20.358Z,1.40
2022-10-02T21:53:26.926Z,2.00
2022-10-02T21:56:34.533Z,1.70
2022-10-02T21:59:28.252Z,6.57
2022-10-02T22:02:24.674Z,1.10
2022-10-02T22:05:37.779Z,3.00
2022-10-02T22:08:13.266Z,1.23
2022-10-02T22:10:45.555Z,1.00
2022-10-02T22:13:23.346Z,1.00
2022-10-02T22:16:05.230Z,1.40
2022-10-02T22:18:43.658Z,0.80
2022-10-02T22:21:26.506Z,1.03
2022-10-02T22:24:09.402Z,1.67
2022-10-02T22:26:53.102Z,1.93
2022-10-02T22:29:25.407Z,1.97
2022-10-02T22:32:26.951Z,1.67
2022-10-02T22:35:01.459Z,0.90
2022-10-02T22:37:47.994Z,1.73
2022-10-02T22:40:20.548Z,1.10
2022-10-02T22:42:53.400Z,2.27
2022-10-02T22:45:28.890Z,1.50
2022-10-02T22:48:05.056Z,0.93
2022-10-02T22:50:37.771Z,1.57
2022-10-02T22:53:11.388Z,0.90
2022-10-02T22:55:47.198Z,1.40
2022-10-02T22:58:18.287Z,2.00
2022-10-02T23:00:57.215Z,1.50
2022-10-02T23:03:32.434Z,4.53
2022-10-02T23:06:03.748Z,4.00
2022-10-02T23:08:35.181Z,1.80
2022-10-02T23:11:09.482Z,1.23
2022-10-02T23:13:43.295Z,1.33
2022-10-02T23:16:16.263Z,2.30
2022-10-02T23:18:50.158Z,1.20
2022-10-02T23:21:26.384Z,0.80
2022-10-02T23:23:58.647Z,1.80
2022-10-02T23:26:31.411Z,1.33
2022-10-02T23:29:14.391Z,2.00
2022-10-02T23:31:45.773Z,2.40
2022-10-02T23:34:22.238Z,1.60
2022-10-02T23:36:53.911Z,0.90
2022-10-02T23:39:26.726Z,1.53
2022-10-02T23:41:55.948Z,1.40
2022-10-02T23:44:30.644Z,1.77
2022-10-02T23:47:20.998Z,1.40
2022-10-02T23:49:53.219Z,2.23
2022-10-02T23:52:37.852Z,1.93
2022-10-02T23:55:19.591Z,4.60
2022-10-02T23:58:00.448Z,1.20
